OKEO2: Sand Creek near Okesa

Data processed at Wed May 22 2019 23:50


All information presented herein is the property of the government of the United States of America and may be revised or deleted at any time without prior notice.
Dissemination of this information without the expressed written consent of the Public Affairs Office, Tulsa District U.S. Army Corps of Engineers is strictly prohibited.
These data are gathered electronically and, as presented, have not undergone any form of quality control. These data are not guaranteed to be valid or correct.
Go to home page.
Go to station list.
Go to home page.

Downstream station:


Previous Day
Next Day
Current Day
    
SHEF ID:       OKEO2     Sand Creek Below Little Rock Cre
STATION TYPE:  

               PRECIP     STAGE  STAGE(2)  RIV-FLOW  BAT-LOAD
                   in        ft        ft       cfs      volt
              Ccp-Rev   Ccp-Rev   Ccp-Rev   Ccp-Rev   Ccp-Rev
(US/Central)
05/22 00:00      0.00     27.60      ----      ----     12.57
05/22 01:00      0.00     24.21      ----      9121     12.57
05/22 02:00      0.00     20.85      ----      6830     12.57
05/22 03:00      0.00     18.03      ----      5089     12.49
05/22 04:00      0.00     15.88      ----      3883     12.49
05/22 05:00      0.00     14.29      ----      3038     12.49
05/22 06:00      0.00     13.17      ----      2446     12.49
05/22 07:00      0.00     12.36      ----      2018     12.49
05/22 08:00      0.00     11.82      ----      1732     12.49
05/22 09:00      0.00     11.40      ----      1510     12.73
05/22 10:00      0.00     11.07      ----      1336     12.89
05/22 11:00      0.00     10.78      ----      1230     13.05
05/22 12:00      0.00     10.58      ----      1161     13.05
05/22 13:00      0.00     10.39      ----      1095     13.29
05/22 14:00      0.00     10.25      ----      1047     13.21
05/22 15:00      0.00     10.07      ----       985     13.60
05/22 16:00      0.00      9.94      ----       940     13.44
05/22 17:00      0.00      9.81      ----       895     13.37
05/22 18:00      0.00      9.69      ----       853     13.21
05/22 19:00      0.00      9.58      ----       815     13.05
05/22 20:00      0.00      9.48      ----       780     12.81
05/22 21:00      0.04      9.41      ----       756     12.65
05/22 22:00      0.62      9.72      ----       863     12.65
05/22 23:00      0.02     14.63      ----      3218     12.57